Freight Dogs virtual Air Cargo

 METAR AND TAF INFORMATION
METAR FOR TJPS
ADDS - METARS form results

(0925 UTC 17 October 2017)
Data provider http://aviationweather.gov/adds/metars/
 
METAR text: TJPS 170917Z AUTO VRB03KT 9999 FEW008 SCT030 BKN039 BKN190 25/23 A2995 RMK AO2 LTG DSNT NE SLP142 WND DATA ESTMD $
Conditions at: TJPS (PONCE/MERCEDITA , PR, US) observed 0917 UTC 17 October 2017
Temperature: 25.0°C (77°F)
Dewpoint: 23.0°C (73°F) [RH = 89%]
Pressure (altimeter): 29.95 inches Hg (1014.3 mb)
[Sea-level pressure: 1014.2 mb]
Winds: variable direction winds at 3 MPH (3 knots; 1.6 m/s)
Visibility: 6 or more miles (10+ km)
Ceiling: 3900 feet AGL
Clouds: few clouds at 800 feet AGL
scattered clouds at 3000 feet AGL
broken clouds at 3900 feet AGL
broken clouds at 19000 feet AGL
Weather:
SOME DATA ABOVE MAY BE INACCURATE!!!
"$" is an indication the sensor requires maintenance

METAR text: TJPS 170855Z AUTO VRB03KT 9000 TS FEW011 SCT024 BKN030 BKN040 25/24 A2995 RMK AO2 SHRAB0638E0813B0839E0845 SLP140 WND DATA ESTMD P0020 60006 T02500236 53006 $
Conditions at: TJPS (PONCE/MERCEDITA , PR, US) observed 0855 UTC 17 October 2017
Temperature: 25.0°C (77°F)
Dewpoint: 23.6°C (74°F) [RH = 92%]
Pressure (altimeter): 29.95 inches Hg (1014.3 mb)
[Sea-level pressure: 1014.0 mb]
Winds: variable direction winds at 3 MPH (3 knots; 1.6 m/s)
Visibility: 6 miles (9 km)
Ceiling: 3000 feet AGL
Clouds: few clouds at 1100 feet AGL
scattered clouds at 2400 feet AGL
broken clouds at 3000 feet AGL
broken clouds at 4000 feet AGL
Weather: TS  (thunderstorm)
SOME DATA ABOVE MAY BE INACCURATE!!!
"$" is an indication the sensor requires maintenance

METAR text: TJPS 170847Z AUTO VRB04KT 8000 +TSRA FEW015 SCT020 BKN030 BKN050 25/24 A2994 RMK AO2 SLP137 WND DATA ESTMD $
Conditions at: TJPS (PONCE/MERCEDITA , PR, US) observed 0847 UTC 17 October 2017
Temperature: 25.0°C (77°F)
Dewpoint: 24.0°C (75°F) [RH = 94%]
Pressure (altimeter): 29.94 inches Hg (1014.0 mb)
[Sea-level pressure: 1013.7 mb]
Winds: variable direction winds at 5 MPH (4 knots; 2.1 m/s)
Visibility: 5 miles (8 km)
Ceiling: 3000 feet AGL
Clouds: few clouds at 1500 feet AGL
scattered clouds at 2000 feet AGL
broken clouds at 3000 feet AGL
broken clouds at 5000 feet AGL
Weather: +TSRA  (heavy rain associated with thunderstorm(s))
SOME DATA ABOVE MAY BE INACCURATE!!!
"$" is an indication the sensor requires maintenance

METAR text: TJPS 170836Z AUTO VRB04KT 1200 +TSRA FEW015 SCT018 BKN030 BKN050 25/24 A2994 RMK AO2 SLP137 WND DATA ESTMD $
Conditions at: TJPS (PONCE/MERCEDITA , PR, US) observed 0836 UTC 17 October 2017
Temperature: 25.0°C (77°F)
Dewpoint: 24.0°C (75°F) [RH = 94%]
Pressure (altimeter): 29.94 inches Hg (1014.0 mb)
[Sea-level pressure: 1013.7 mb]
Winds: variable direction winds at 5 MPH (4 knots; 2.1 m/s)
Visibility: 0.75 miles (1.21 km)
Ceiling: 3000 feet AGL
Clouds: few clouds at 1500 feet AGL
scattered clouds at 1800 feet AGL
broken clouds at 3000 feet AGL
broken clouds at 5000 feet AGL
Weather: +TSRA  (heavy rain associated with thunderstorm(s))
SOME DATA ABOVE MAY BE INACCURATE!!!
"$" is an indication the sensor requires maintenance

METAR text: TJPS 170826Z AUTO VRB01KT 4800 -TSRA FEW017 SCT033 BKN050 BKN070 26/24 A2994 RMK AO2 SLP136 WND DATA ESTMD $
Conditions at: TJPS (PONCE/MERCEDITA , PR, US) observed 0826 UTC 17 October 2017
Temperature: 26.0°C (79°F)
Dewpoint: 24.0°C (75°F) [RH = 89%]
Pressure (altimeter): 29.94 inches Hg (1014.0 mb)
[Sea-level pressure: 1013.6 mb]
Winds: variable direction winds at 1 MPH (1 knots; 0.5 m/s)
Visibility: 2.98 miles (4.80 km)
Ceiling: 5000 feet AGL
Clouds: few clouds at 1700 feet AGL
scattered clouds at 3300 feet AGL
broken clouds at 5000 feet AGL
broken clouds at 7000 feet AGL
Weather: -TSRA  (light rain associated with thunderstorm(s))
SOME DATA ABOVE MAY BE INACCURATE!!!
"$" is an indication the sensor requires maintenance

Forecast for: TJPS (PONCE/MERCEDITA , PR, US)
Text: TJPS 170841Z 1709/1806 08007KT P6SM VCTS FEW020 SCT030CB BKN050
Forecast period: 0900 to 1500 UTC 17 October 2017
Forecast type: FROM: standard forecast or significant change
Winds: from the E (80 degrees) at 8 MPH (7 knots; 3.6 m/s)
Visibility: 6 or more miles (10+ km)
Ceiling: 5000 feet AGL
Clouds: few clouds at 2000 feet AGL
scattered clouds at 3000 feet AGL
broken clouds at 5000 feet AGL
Weather: VCTS  (thunderstorm in vicinity)
Text: TEMPO 1709/1711 2SM TSRA BKN020CB
Forecast period: 0900 to 1100 UTC 17 October 2017
Forecast type: TEMPORARY: The following changes expected for less than half the time period
Visibility: 2.00 miles (3.22 km)
Ceiling: 2000 feet AGL
Clouds: broken clouds at 2000 feet AGL
Weather: TSRA  (rain associated with thunderstorm(s))
Text: FM171500 12010KT P6SM +RA SCT035 BKN050
Forecast period: 1500 to 1800 UTC 17 October 2017
Forecast type: FROM: standard forecast or significant change
Winds: from the ESE (120 degrees) at 12 MPH (10 knots; 5.2 m/s)
Visibility: 6 or more miles (10+ km)
Ceiling: 5000 feet AGL
Clouds: scattered clouds at 3500 feet AGL
broken clouds at 5000 feet AGL
Weather: +RA  (heavy rain)
Text: FM171800 14010KT P6SM SHRA VCTS SCT030CB BKN050
Forecast period: 1800 UTC 17 October 2017 to 0300 UTC 18 October 2017
Forecast type: FROM: standard forecast or significant change
Winds: from the SE (140 degrees) at 12 MPH (10 knots; 5.2 m/s)
Visibility: 6 or more miles (10+ km)
Ceiling: 5000 feet AGL
Clouds: scattered clouds at 3000 feet AGL
broken clouds at 5000 feet AGL
Weather: SHRA VCTS  (rain showers, thunderstorm in vicinity)
Text: FM180300 07008KT P6SM VCSH SCT030
Forecast period: 0300 to 0600 UTC 18 October 2017
Forecast type: FROM: standard forecast or significant change
Winds: from the ENE (70 degrees) at 9 MPH (8 knots; 4.2 m/s)
Visibility: 6 or more miles (10+ km)
Clouds: scattered clouds at 3000 feet AGL
Weather: VCSH  (showers in vicinity)

 AIRPORT MAP

 RUNWAY INFORMATION
Runway 12 Runway length 6904 ft Runway width 150 ft
Runway elevation 23 ft Runway displaced threshold 789 ft Runway heading 108
Runway 30 Runway length 6904 ft Runway width 150 ft
Runway elevation 24 ft Runway displaced threshold 0 ft Runway heading 288

 AIRPORT FREQUENCIES
Type A/D Name SAN JUAN C Frequency 118.75 MHZ
Type CLD Name CLNC DEL Frequency 121.9 MHZ
Type RDO Name SAN JUAN R Frequency 109 MHZ
Type UNIC Name CTAF/UNICO Frequency 122.7 MHZ

 AIRPORT NEAR NAVIGATION AIDS
Type VOR-DME Name Ponce Frequency 109000 KHZ



Powered by Virtual Airlines Manager [v2.6.1]



The information contained on all pages of this website is to be used for flight simulation purposes only on the IVAO and VATSIM networks. It is not intended nor should it be used for real world navigation. This site is not affiliated with the FAA, any real world airline, or real world aviation body. All content contained herein is approved only for use on the IVAO and VATSIM network.
© 2008 - 2017   Freight Dogs Virtual Air Cargo, all rights reserved.